createdAt,value
2023-01-15T00:01:39.063Z,-2.99
2023-01-15T00:04:06.499Z,-3.00
2023-01-15T00:06:38.052Z,-3.00
2023-01-15T00:09:05.716Z,-3.00
2023-01-15T00:11:32.438Z,-3.01
2023-01-15T00:14:00.669Z,-3.01
2023-01-15T00:16:27.883Z,-3.02
2023-01-15T00:18:56.098Z,-3.03
2023-01-15T00:21:24.021Z,-3.04
2023-01-15T00:24:09.603Z,-3.04
2023-01-15T00:26:55.687Z,-3.02
2023-01-15T00:29:24.695Z,-3.01
2023-01-15T00:32:07.713Z,-3.01
2023-01-15T00:34:34.757Z,-3.02
2023-01-15T00:37:03.953Z,-3.02
2023-01-15T00:39:34.084Z,-3.02
2023-01-15T00:42:00.810Z,-3.03
2023-01-15T00:44:28.068Z,-3.02
2023-01-15T00:46:54.911Z,-3.03
2023-01-15T00:49:22.050Z,-3.03
2023-01-15T00:51:50.556Z,-3.03
2023-01-15T00:54:17.576Z,-3.03
2023-01-15T00:56:44.571Z,-3.03
2023-01-15T00:59:15.185Z,-3.04
2023-01-15T01:01:43.125Z,-3.04
2023-01-15T01:04:10.803Z,-3.06
2023-01-15T01:06:37.686Z,-3.06
2023-01-15T01:09:04.589Z,-3.06
2023-01-15T01:11:33.763Z,-3.08
2023-01-15T01:14:00.944Z,-3.07
2023-01-15T01:16:33.100Z,-3.08
2023-01-15T01:19:03.036Z,-3.09
2023-01-15T01:21:30.573Z,-3.10
2023-01-15T05:09:09.089Z,-2.93
2023-01-15T05:11:37.269Z,-2.73
2023-01-15T05:14:04.541Z,-2.70
2023-01-15T05:16:31.646Z,-2.69
2023-01-15T05:19:01.595Z,-2.70
2023-01-15T05:21:31.369Z,-2.71
2023-01-15T05:23:59.993Z,-2.73
2023-01-15T05:26:27.426Z,-2.74
2023-01-15T05:28:55.489Z,-2.75
2023-01-15T05:31:22.631Z,-2.77
2023-01-15T05:33:51.719Z,-2.79
2023-01-15T05:36:20.528Z,-2.79
2023-01-15T05:38:47.427Z,-2.80
2023-01-15T05:41:37.213Z,-2.81
2023-01-15T05:44:06.415Z,-2.81
2023-01-15T05:46:33.972Z,-2.81
2023-01-15T05:49:01.831Z,-2.80
2023-01-15T05:51:28.972Z,-2.82
2023-01-15T05:53:58.893Z,-2.83
2023-01-15T05:56:25.740Z,-2.85
2023-01-15T05:58:52.980Z,-2.87
2023-01-15T06:01:20.283Z,-2.90
2023-01-15T06:03:48.914Z,-2.91
2023-01-15T06:06:17.501Z,-2.92
2023-01-15T06:08:44.756Z,-2.93
2023-01-15T06:11:12.005Z,-2.94
2023-01-15T06:13:39.261Z,-2.95
2023-01-15T06:16:07.872Z,-2.96
2023-01-15T06:18:35.094Z,-2.96
2023-01-15T06:21:04.150Z,-2.96
2023-01-15T06:23:31.666Z,-2.97
2023-01-15T06:26:01.245Z,-2.98
2023-01-15T06:28:28.459Z,-2.99
2023-01-15T06:30:55.139Z,-3.00
2023-01-15T06:33:22.125Z,-3.01
2023-01-15T06:35:49.023Z,-3.01
2023-01-15T06:38:18.221Z,-3.00
2023-01-15T06:40:45.105Z,-2.99
2023-01-15T06:43:30.857Z,-2.98
2023-01-15T06:46:16.373Z,-2.96
2023-01-15T06:48:43.473Z,-2.96
2023-01-15T06:51:12.764Z,-2.95
2023-01-15T06:53:41.355Z,-2.93
2023-01-15T06:56:08.567Z,-2.91
2023-01-15T06:58:35.548Z,-2.89
2023-01-15T07:01:13.253Z,-2.87
2023-01-15T07:03:40.515Z,-2.87
2023-01-15T07:06:08.900Z,-2.87
2023-01-15T07:08:35.819Z,-2.85
2023-01-15T07:11:07.426Z,-2.83
2023-01-15T07:13:34.520Z,-2.82
2023-01-15T07:16:02.312Z,-2.80
2023-01-15T07:18:30.986Z,-2.79
2023-01-15T07:20:58.220Z,-2.77
2023-01-15T07:23:25.319Z,-2.76
2023-01-15T07:25:53.031Z,-2.74
2023-01-15T07:28:20.804Z,-2.73
2023-01-15T07:30:47.555Z,-2.74
2023-01-15T07:33:17.091Z,-2.74
2023-01-15T07:35:43.994Z,-2.74
2023-01-15T07:38:10.640Z,-2.73
2023-01-15T07:40:38.322Z,-2.71
2023-01-15T07:43:23.786Z,-2.69
2023-01-15T07:46:09.443Z,-2.69
2023-01-15T07:48:54.690Z,-2.67
2023-01-15T07:51:21.567Z,-2.65
2023-01-15T07:53:48.207Z,-2.62
2023-01-15T07:56:15.053Z,-2.59
2023-01-15T07:58:44.621Z,-2.56
2023-01-15T08:01:11.501Z,-2.51
2023-01-15T08:03:38.652Z,-2.46
2023-01-15T08:06:05.985Z,-2.41
2023-01-15T08:08:32.723Z,-2.37
2023-01-15T08:11:21.184Z,-2.32
2023-01-15T08:14:06.732Z,-2.28
2023-01-15T08:16:37.453Z,-2.26
2023-01-15T08:19:05.348Z,-2.23
2023-01-15T08:21:32.296Z,-2.20
2023-01-15T08:23:59.135Z,-2.19
2023-01-15T08:26:26.010Z,-2.19
2023-01-15T08:28:52.927Z,-2.18
2023-01-15T08:31:19.706Z,-2.20
2023-01-15T08:33:48.452Z,-2.20
2023-01-15T08:36:16.553Z,-2.21
2023-01-15T08:38:43.602Z,-2.21
2023-01-15T08:41:10.730Z,-2.19
2023-01-15T08:43:37.610Z,-2.19
2023-01-15T08:46:05.144Z,-2.19
2023-01-15T08:48:32.214Z,-2.16
2023-01-15T08:50:59.115Z,-2.14
2023-01-15T08:53:26.275Z,-2.10
2023-01-15T08:55:53.097Z,-2.07
2023-01-15T08:58:19.960Z,-2.05
2023-01-15T09:00:49.993Z,-2.04
2023-01-15T09:03:16.798Z,-2.05
2023-01-15T09:05:43.535Z,-2.06
2023-01-15T09:08:11.398Z,-2.08
2023-01-15T09:10:39.782Z,-2.08
2023-01-15T09:13:06.775Z,-2.09
2023-01-15T09:15:34.098Z,-2.05
2023-01-15T09:18:01.126Z,-2.03
2023-01-15T09:20:28.169Z,-1.99
2023-01-15T09:22:55.121Z,-1.96
2023-01-15T09:25:23.922Z,-1.94
2023-01-15T09:27:50.852Z,-1.91
2023-01-15T09:30:19.718Z,-1.87
2023-01-15T09:32:47.298Z,-1.85
2023-01-15T09:35:15.124Z,-1.85
2023-01-15T09:37:41.921Z,-1.86
2023-01-15T09:40:22.343Z,-1.84
2023-01-15T09:42:52.596Z,-1.83
2023-01-15T09:45:25.651Z,-1.83
2023-01-15T09:48:12.076Z,-1.82
2023-01-15T09:51:12.085Z,-1.77
2023-01-15T09:54:11.390Z,-1.71
2023-01-15T09:56:39.024Z,-1.73
2023-01-15T09:59:16.232Z,-1.76
2023-01-15T10:01:43.311Z,-1.77
2023-01-15T10:04:28.466Z,-1.74
2023-01-15T10:07:10.653Z,-1.69
2023-01-15T10:09:39.029Z,-1.67
2023-01-15T10:12:46.879Z,-1.63
2023-01-15T10:15:13.698Z,-1.57
2023-01-15T13:29:19.468Z,-1.93
2023-01-15T13:31:57.490Z,-1.78
2023-01-15T13:34:29.178Z,-1.80
2023-01-15T13:37:22.960Z,-1.83
2023-01-15T13:39:50.951Z,-1.85
2023-01-15T13:42:32.543Z,-1.87
2023-01-15T13:45:07.860Z,-1.90
2023-01-15T13:47:36.179Z,-1.91
2023-01-15T13:50:05.767Z,-1.94
2023-01-15T13:52:34.499Z,-1.93
2023-01-15T13:55:12.157Z,-1.91
2023-01-15T13:57:40.940Z,-1.93
2023-01-15T14:00:25.804Z,-1.96
2023-01-15T14:02:54.295Z,-1.96
2023-01-15T14:05:32.624Z,-1.96
2023-01-15T14:08:03.640Z,-1.96
2023-01-15T14:10:30.778Z,-1.99
2023-01-15T14:13:10.057Z,-2.02
2023-01-15T14:15:56.614Z,-2.04
2023-01-15T14:18:45.165Z,-2.04
2023-01-15T14:21:23.295Z,-2.06
2023-01-15T14:24:03.551Z,-2.07
2023-01-15T14:26:39.275Z,-2.08
2023-01-15T14:29:30.177Z,-2.12
2023-01-15T14:32:27.772Z,-2.18
2023-01-15T14:34:59.296Z,-2.22
2023-01-15T14:37:26.713Z,-2.26
2023-01-15T14:39:57.697Z,-2.27
2023-01-15T14:42:53.584Z,-2.28
2023-01-15T14:45:36.572Z,-2.30
2023-01-15T14:48:05.331Z,-2.31
2023-01-15T14:50:39.119Z,-2.35
2023-01-15T14:53:13.028Z,-2.38
2023-01-15T14:56:01.308Z,-2.40
2023-01-15T14:58:49.224Z,-2.43
2023-01-15T15:01:30.745Z,-2.47
2023-01-15T15:04:17.506Z,-2.48
2023-01-15T15:06:48.540Z,-2.49
2023-01-15T15:09:24.913Z,-2.50
2023-01-15T15:12:10.596Z,-2.51
2023-01-15T15:14:38.398Z,-2.51
2023-01-15T15:17:07.050Z,-2.53
2023-01-15T15:19:36.753Z,-2.55
2023-01-15T15:22:05.168Z,-2.56
2023-01-15T15:24:36.697Z,-2.57
2023-01-15T15:27:16.831Z,-2.57
2023-01-15T15:29:44.025Z,-2.57
2023-01-15T15:32:21.229Z,-2.57
2023-01-15T15:34:52.535Z,-2.57
2023-01-15T15:37:21.171Z,-2.57
2023-01-15T15:40:02.778Z,-2.58
2023-01-15T15:42:58.806Z,-2.57
2023-01-15T15:45:45.761Z,-2.60
2023-01-15T15:49:07.449Z,-2.61
2023-01-15T15:51:42.187Z,-2.61
2023-01-15T15:54:15.502Z,-2.62
2023-01-15T15:56:46.823Z,-2.62
2023-01-15T15:59:16.228Z,-2.63
2023-01-15T16:01:43.026Z,-2.64
2023-01-15T16:04:15.773Z,-2.67
2023-01-15T16:06:42.475Z,-2.68
2023-01-15T16:09:09.633Z,-2.70
2023-01-15T16:11:36.362Z,-2.70
2023-01-15T16:14:07.601Z,-2.70
2023-01-15T16:16:34.345Z,-2.70
2023-01-15T16:19:01.292Z,-2.69
2023-01-15T16:21:28.880Z,-2.69
2023-01-15T16:24:02.936Z,-2.69
2023-01-15T16:26:35.436Z,-2.69
2023-01-15T16:29:03.916Z,-2.68
2023-01-15T16:31:34.651Z,-2.69
2023-01-15T16:34:04.178Z,-2.68
2023-01-15T16:36:40.769Z,-2.69
2023-01-15T16:39:17.771Z,-2.71
2023-01-15T16:41:48.026Z,-2.74
2023-01-15T16:44:25.419Z,-2.77
2023-01-15T16:46:54.140Z,-2.80
2023-01-15T16:49:21.449Z,-2.82
2023-01-15T16:51:56.749Z,-2.84
2023-01-15T16:54:29.626Z,-2.86
2023-01-15T16:57:00.859Z,-2.87
2023-01-15T16:59:27.664Z,-2.89
2023-01-15T17:02:11.605Z,-2.90
2023-01-15T17:04:40.710Z,-2.91
2023-01-15T17:07:16.058Z,-2.91
2023-01-15T17:09:59.185Z,-2.93
2023-01-15T17:12:38.121Z,-2.93
2023-01-15T17:15:17.638Z,-2.93
2023-01-15T17:17:46.310Z,-2.93
2023-01-15T17:20:13.786Z,-2.93
2023-01-15T17:22:44.609Z,-2.92
2023-01-15T17:25:25.987Z,-2.91
2023-01-15T17:27:56.618Z,-2.91
2023-01-15T17:30:30.480Z,-2.91
2023-01-15T17:33:01.067Z,-2.92
2023-01-15T17:35:29.636Z,-2.94
2023-01-15T17:37:56.606Z,-2.94
2023-01-15T17:40:23.826Z,-2.94
2023-01-15T17:42:50.681Z,-2.95
2023-01-15T17:45:27.871Z,-2.95
2023-01-15T17:47:54.917Z,-2.96
2023-01-15T17:50:22.163Z,-2.95
2023-01-15T17:52:48.953Z,-2.97
2023-01-15T17:55:38.173Z,-2.96
2023-01-15T17:58:24.153Z,-2.97
2023-01-15T18:01:09.727Z,-2.97
2023-01-15T18:03:55.328Z,-2.97
2023-01-15T18:06:21.956Z,-2.97
2023-01-15T18:08:52.355Z,-2.98
2023-01-15T18:11:19.727Z,-3.00
2023-01-15T18:13:46.945Z,-3.01
2023-01-15T18:16:15.432Z,-3.02
2023-01-15T18:18:42.709Z,-3.02
2023-01-15T18:21:09.407Z,-3.02
2023-01-15T18:23:38.954Z,-3.02
2023-01-15T18:26:06.645Z,-3.01
2023-01-15T18:28:36.064Z,-3.00
2023-01-15T18:31:03.366Z,-2.99
2023-01-15T18:33:30.425Z,-2.99
2023-01-15T18:36:11.417Z,-3.00
2023-01-15T18:38:39.949Z,-3.01
2023-01-15T18:41:08.314Z,-2.99
2023-01-15T18:43:53.561Z,-3.00
2023-01-15T18:46:39.241Z,-2.98
2023-01-15T18:49:06.147Z,-2.96
2023-01-15T18:51:32.888Z,-2.95
2023-01-15T18:53:59.634Z,-2.95
2023-01-15T18:56:38.790Z,-2.94
2023-01-15T18:59:07.236Z,-2.95
2023-01-15T19:01:34.442Z,-2.96
2023-01-15T19:04:01.743Z,-2.96
2023-01-15T19:06:28.700Z,-2.96
2023-01-15T19:08:55.835Z,-2.97
2023-01-15T19:11:22.507Z,-2.97
2023-01-15T19:14:09.232Z,-2.99
2023-01-15T19:16:56.192Z,-2.98
2023-01-15T19:19:23.242Z,-2.96
2023-01-15T19:22:08.705Z,-2.94
2023-01-15T19:24:35.448Z,-2.91
2023-01-15T19:27:03.760Z,-2.91
2023-01-15T19:29:30.672Z,-2.91
2023-01-15T19:31:57.514Z,-2.91
2023-01-15T19:34:33.453Z,-2.91
2023-01-15T19:37:00.933Z,-2.92
2023-01-15T19:39:28.663Z,-2.94
2023-01-15T19:42:15.246Z,-2.98
2023-01-15T19:45:00.939Z,-3.01
2023-01-15T19:47:54.751Z,-3.02
2023-01-15T19:50:25.029Z,-3.02
2023-01-15T19:52:53.270Z,-3.04
2023-01-15T19:55:22.456Z,-3.05
2023-01-15T19:57:55.827Z,-3.05
2023-01-15T20:00:22.896Z,-3.05
2023-01-15T20:02:50.452Z,-3.06
2023-01-15T20:05:18.225Z,-3.08
2023-01-15T20:07:45.047Z,-3.09
2023-01-15T20:10:14.171Z,-3.08
2023-01-15T20:13:00.045Z,-3.09
2023-01-15T20:15:27.079Z,-3.10
2023-01-15T20:17:54.126Z,-3.11
2023-01-15T20:20:21.171Z,-3.12
2023-01-15T20:22:47.909Z,-3.14
2023-01-15T20:25:14.866Z,-3.16
2023-01-15T20:27:42.204Z,-3.17
2023-01-15T20:30:13.943Z,-3.19
2023-01-15T20:32:45.830Z,-3.20
2023-01-15T20:35:18.917Z,-3.21
2023-01-15T20:37:47.443Z,-3.20
2023-01-15T20:40:16.898Z,-3.20
2023-01-15T20:43:03.208Z,-3.21
2023-01-15T20:45:30.721Z,-3.21
2023-01-15T20:48:13.481Z,-3.22
2023-01-15T20:51:00.432Z,-3.23
2023-01-15T20:53:33.505Z,-3.25
2023-01-15T20:56:01.432Z,-3.27
2023-01-15T20:58:28.234Z,-3.29
2023-01-15T21:01:01.453Z,-3.31
2023-01-15T21:03:28.308Z,-3.32
2023-01-15T21:05:58.326Z,-3.34
2023-01-15T21:08:25.182Z,-3.36
2023-01-15T21:10:52.927Z,-3.39
2023-01-15T21:13:23.194Z,-3.42
2023-01-15T21:16:03.745Z,-3.44
2023-01-15T21:18:31.585Z,-3.46
2023-01-15T21:20:58.187Z,-3.48
2023-01-15T21:23:25.058Z,-3.49
2023-01-15T21:25:58.284Z,-3.49
2023-01-15T21:28:25.105Z,-3.50
2023-01-15T21:30:52.038Z,-3.48
2023-01-15T21:33:18.875Z,-3.48
2023-01-15T21:35:45.717Z,-3.48
2023-01-15T21:38:13.177Z,-3.47
2023-01-15T21:40:40.014Z,-3.46
2023-01-15T21:43:25.393Z,-3.46
2023-01-15T21:46:00.166Z,-3.46
2023-01-15T21:48:27.198Z,-3.45
2023-01-15T21:50:56.973Z,-3.45
2023-01-15T21:53:23.918Z,-3.46
2023-01-15T21:55:51.093Z,-3.47
2023-01-15T21:58:21.387Z,-3.47
2023-01-15T22:00:48.417Z,-3.46
2023-01-15T22:03:17.533Z,-3.46
2023-01-15T22:05:44.883Z,-3.47
2023-01-15T22:08:11.931Z,-3.48
2023-01-15T22:10:39.079Z,-3.47
2023-01-15T22:13:07.177Z,-3.48
2023-01-15T22:15:33.991Z,-3.46
2023-01-15T22:18:01.054Z,-3.45
2023-01-15T22:20:27.987Z,-3.46
2023-01-15T22:22:54.926Z,-3.44
2023-01-15T22:25:21.770Z,-3.43
2023-01-15T22:27:48.645Z,-3.42
2023-01-15T22:30:16.168Z,-3.42
2023-01-15T22:32:43.013Z,-3.41
2023-01-15T22:35:10.158Z,-3.40
2023-01-15T22:37:36.998Z,-3.40
2023-01-15T22:40:05.230Z,-3.39
2023-01-15T22:42:32.424Z,-3.39
2023-01-15T22:44:59.775Z,-3.40
2023-01-15T22:47:30.639Z,-3.40
2023-01-15T22:49:57.455Z,-3.40
2023-01-15T22:52:25.377Z,-3.40
2023-01-15T22:54:52.900Z,-3.40
2023-01-15T22:57:19.833Z,-3.41
2023-01-15T22:59:46.564Z,-3.41
2023-01-15T23:02:13.529Z,-3.42
2023-01-15T23:04:40.473Z,-3.42
2023-01-15T23:07:08.854Z,-3.42
2023-01-15T23:09:36.595Z,-3.41
2023-01-15T23:12:03.903Z,-3.41
2023-01-15T23:14:31.403Z,-3.40
2023-01-15T23:16:58.140Z,-3.39
2023-01-15T23:19:27.338Z,-3.38
2023-01-15T23:21:54.487Z,-3.37
2023-01-15T23:24:21.158Z,-3.36
2023-01-15T23:26:47.839Z,-3.35
2023-01-15T23:29:14.931Z,-3.33
2023-01-15T23:31:41.761Z,-3.33
2023-01-15T23:34:09.970Z,-3.32
2023-01-15T23:36:36.608Z,-3.30
2023-01-15T23:39:03.446Z,-3.29
2023-01-15T23:41:48.779Z,-3.29
2023-01-15T23:44:35.306Z,-3.27
2023-01-15T23:47:02.158Z,-3.25
2023-01-15T23:49:29.067Z,-3.25
2023-01-15T23:51:57.779Z,-3.24
2023-01-15T23:54:29.508Z,-3.23
2023-01-15T23:56:57.787Z,-3.23
2023-01-15T23:59:25.157Z,-3.22
